sensor_id;sensor_type;location;lat;lon;timestamp;P1;durP1;ratioP1;P2;durP2;ratioP2
66761;SDS011;53672;48.176;16.338;2023-07-13T00:01:52;4.07;;;1.80;;
66761;SDS011;53672;48.176;16.338;2023-07-13T00:06:54;4.25;;;1.77;;
66761;SDS011;53672;48.176;16.338;2023-07-13T00:11:55;4.28;;;1.50;;
66761;SDS011;53672;48.176;16.338;2023-07-13T00:16:56;5.60;;;2.10;;
66761;SDS011;53672;48.176;16.338;2023-07-13T00:21:58;6.07;;;2.20;;
66761;SDS011;53672;48.176;16.338;2023-07-13T00:26:59;5.03;;;2.17;;
66761;SDS011;53672;48.176;16.338;2023-07-13T00:31:59;6.47;;;2.13;;
66761;SDS011;53672;48.176;16.338;2023-07-13T00:37:01;4.43;;;2.00;;
66761;SDS011;53672;48.176;16.338;2023-07-13T00:42:02;4.37;;;1.90;;
66761;SDS011;53672;48.176;16.338;2023-07-13T00:47:03;5.85;;;1.88;;
66761;SDS011;53672;48.176;16.338;2023-07-13T00:52:06;3.93;;;1.73;;
66761;SDS011;53672;48.176;16.338;2023-07-13T00:57:09;3.65;;;1.27;;
66761;SDS011;53672;48.176;16.338;2023-07-13T01:02:12;3.67;;;1.50;;
66761;SDS011;53672;48.176;16.338;2023-07-13T01:07:14;4.60;;;1.60;;
66761;SDS011;53672;48.176;16.338;2023-07-13T01:12:15;3.58;;;1.45;;
66761;SDS011;53672;48.176;16.338;2023-07-13T01:17:15;4.67;;;1.30;;
66761;SDS011;53672;48.176;16.338;2023-07-13T01:22:18;4.32;;;1.60;;
66761;SDS011;53672;48.176;16.338;2023-07-13T01:27:20;3.30;;;1.40;;
66761;SDS011;53672;48.176;16.338;2023-07-13T01:32:24;3.83;;;1.40;;
66761;SDS011;53672;48.176;16.338;2023-07-13T01:37:26;3.93;;;1.50;;
66761;SDS011;53672;48.176;16.338;2023-07-13T01:42:26;4.03;;;1.50;;
66761;SDS011;53672;48.176;16.338;2023-07-13T01:47:28;5.30;;;1.35;;
66761;SDS011;53672;48.176;16.338;2023-07-13T01:52:30;3.10;;;1.20;;
66761;SDS011;53672;48.176;16.338;2023-07-13T01:57:30;4.43;;;1.40;;
66761;SDS011;53672;48.176;16.338;2023-07-13T02:02:31;4.87;;;1.30;;
66761;SDS011;53672;48.176;16.338;2023-07-13T02:07:33;4.30;;;1.50;;
66761;SDS011;53672;48.176;16.338;2023-07-13T02:12:34;3.47;;;1.60;;
66761;SDS011;53672;48.176;16.338;2023-07-13T02:17:35;4.22;;;1.60;;
66761;SDS011;53672;48.176;16.338;2023-07-13T02:22:37;4.20;;;1.60;;
66761;SDS011;53672;48.176;16.338;2023-07-13T02:27:37;4.35;;;1.83;;
66761;SDS011;53672;48.176;16.338;2023-07-13T02:32:38;3.70;;;1.77;;
66761;SDS011;53672;48.176;16.338;2023-07-13T02:37:39;3.53;;;1.77;;
66761;SDS011;53672;48.176;16.338;2023-07-13T02:42:40;4.60;;;1.73;;
66761;SDS011;53672;48.176;16.338;2023-07-13T02:47:41;3.47;;;1.80;;
66761;SDS011;53672;48.176;16.338;2023-07-13T02:52:43;4.97;;;1.83;;
66761;SDS011;53672;48.176;16.338;2023-07-13T02:57:43;4.03;;;1.80;;
66761;SDS011;53672;48.176;16.338;2023-07-13T03:02:44;4.83;;;2.00;;
66761;SDS011;53672;48.176;16.338;2023-07-13T03:07:46;5.43;;;2.00;;
66761;SDS011;53672;48.176;16.338;2023-07-13T03:12:46;4.72;;;1.83;;
66761;SDS011;53672;48.176;16.338;2023-07-13T03:17:47;5.13;;;1.90;;
66761;SDS011;53672;48.176;16.338;2023-07-13T03:22:49;4.67;;;1.60;;
66761;SDS011;53672;48.176;16.338;2023-07-13T03:27:49;5.50;;;2.00;;
66761;SDS011;53672;48.176;16.338;2023-07-13T03:32:49;4.97;;;1.90;;
66761;SDS011;53672;48.176;16.338;2023-07-13T03:37:51;5.43;;;2.13;;
66761;SDS011;53672;48.176;16.338;2023-07-13T03:42:52;4.60;;;1.70;;
66761;SDS011;53672;48.176;16.338;2023-07-13T03:47:52;7.17;;;2.00;;
66761;SDS011;53672;48.176;16.338;2023-07-13T03:52:54;5.80;;;2.20;;
66761;SDS011;53672;48.176;16.338;2023-07-13T03:57:57;5.60;;;2.05;;
66761;SDS011;53672;48.176;16.338;2023-07-13T04:03:00;5.33;;;2.10;;
66761;SDS011;53672;48.176;16.338;2023-07-13T04:08:02;6.77;;;2.40;;
66761;SDS011;53672;48.176;16.338;2023-07-13T04:13:02;5.95;;;2.35;;
66761;SDS011;53672;48.176;16.338;2023-07-13T04:18:03;5.23;;;2.20;;
66761;SDS011;53672;48.176;16.338;2023-07-13T04:23:05;4.23;;;2.07;;
66761;SDS011;53672;48.176;16.338;2023-07-13T04:28:05;4.70;;;2.47;;
66761;SDS011;53672;48.176;16.338;2023-07-13T04:33:06;8.97;;;3.20;;
66761;SDS011;53672;48.176;16.338;2023-07-13T04:38:08;5.73;;;2.60;;
66761;SDS011;53672;48.176;16.338;2023-07-13T04:43:08;5.63;;;2.40;;
66761;SDS011;53672;48.176;16.338;2023-07-13T04:48:09;8.73;;;2.57;;
66761;SDS011;53672;48.176;16.338;2023-07-13T04:53:10;5.47;;;2.30;;
66761;SDS011;53672;48.176;16.338;2023-07-13T04:58:11;5.05;;;2.17;;
66761;SDS011;53672;48.176;16.338;2023-07-13T05:03:11;5.10;;;2.20;;
66761;SDS011;53672;48.176;16.338;2023-07-13T05:08:13;4.93;;;1.90;;
66761;SDS011;53672;48.176;16.338;2023-07-13T05:13:14;4.35;;;1.75;;
66761;SDS011;53672;48.176;16.338;2023-07-13T05:18:14;5.73;;;2.30;;
66761;SDS011;53672;48.176;16.338;2023-07-13T05:23:16;5.83;;;2.00;;
66761;SDS011;53672;48.176;16.338;2023-07-13T05:28:16;4.90;;;1.90;;
66761;SDS011;53672;48.176;16.338;2023-07-13T05:33:17;5.90;;;2.17;;
66761;SDS011;53672;48.176;16.338;2023-07-13T05:38:19;6.35;;;1.60;;
66761;SDS011;53672;48.176;16.338;2023-07-13T05:43:20;4.13;;;2.08;;
66761;SDS011;53672;48.176;16.338;2023-07-13T05:48:20;6.68;;;1.73;;
66761;SDS011;53672;48.176;16.338;2023-07-13T05:53:22;5.97;;;1.90;;
66761;SDS011;53672;48.176;16.338;2023-07-13T05:58:23;4.90;;;1.88;;
66761;SDS011;53672;48.176;16.338;2023-07-13T06:03:23;4.30;;;1.88;;
66761;SDS011;53672;48.176;16.338;2023-07-13T06:08:25;5.93;;;1.77;;
66761;SDS011;53672;48.176;16.338;2023-07-13T06:13:25;4.03;;;1.67;;
66761;SDS011;53672;48.176;16.338;2023-07-13T06:18:26;4.90;;;1.80;;
66761;SDS011;53672;48.176;16.338;2023-07-13T06:23:28;4.50;;;1.50;;
66761;SDS011;53672;48.176;16.338;2023-07-13T06:28:28;5.53;;;2.00;;
66761;SDS011;53672;48.176;16.338;2023-07-13T06:33:29;4.03;;;1.88;;
66761;SDS011;53672;48.176;16.338;2023-07-13T06:38:31;5.70;;;1.80;;
66761;SDS011;53672;48.176;16.338;2023-07-13T06:43:32;4.70;;;1.70;;
66761;SDS011;53672;48.176;16.338;2023-07-13T06:48:32;4.10;;;1.50;;
66761;SDS011;53672;48.176;16.338;2023-07-13T06:53:34;3.53;;;1.40;;
66761;SDS011;53672;48.176;16.338;2023-07-13T06:58:35;4.03;;;1.50;;
66761;SDS011;53672;48.176;16.338;2023-07-13T07:03:35;4.07;;;1.20;;
66761;SDS011;53672;48.176;16.338;2023-07-13T07:08:37;4.70;;;2.03;;
66761;SDS011;53672;48.176;16.338;2023-07-13T07:13:37;3.72;;;1.00;;
66761;SDS011;53672;48.176;16.338;2023-07-13T07:18:38;4.50;;;1.90;;
66761;SDS011;53672;48.176;16.338;2023-07-13T07:23:40;4.50;;;1.40;;
66761;SDS011;53672;48.176;16.338;2023-07-13T07:28:40;5.68;;;1.80;;
66761;SDS011;53672;48.176;16.338;2023-07-13T07:33:41;3.97;;;1.50;;
66761;SDS011;53672;48.176;16.338;2023-07-13T07:38:43;3.37;;;1.40;;
66761;SDS011;53672;48.176;16.338;2023-07-13T07:43:43;5.82;;;2.63;;
66761;SDS011;53672;48.176;16.338;2023-07-13T07:48:44;3.40;;;1.40;;
66761;SDS011;53672;48.176;16.338;2023-07-13T07:53:46;3.83;;;1.20;;
66761;SDS011;53672;48.176;16.338;2023-07-13T07:58:47;4.63;;;1.25;;
66761;SDS011;53672;48.176;16.338;2023-07-13T08:03:47;5.75;;;1.20;;
66761;SDS011;53672;48.176;16.338;2023-07-13T08:08:49;5.70;;;1.40;;
66761;SDS011;53672;48.176;16.338;2023-07-13T08:13:50;3.43;;;1.23;;
66761;SDS011;53672;48.176;16.338;2023-07-13T08:18:51;4.47;;;1.30;;
66761;SDS011;53672;48.176;16.338;2023-07-13T08:23:53;4.20;;;1.50;;
66761;SDS011;53672;48.176;16.338;2023-07-13T08:28:53;4.28;;;1.50;;
66761;SDS011;53672;48.176;16.338;2023-07-13T08:33:53;4.27;;;1.60;;
66761;SDS011;53672;48.176;16.338;2023-07-13T08:38:55;3.83;;;1.43;;
66761;SDS011;53672;48.176;16.338;2023-07-13T08:43:56;4.00;;;1.70;;
66761;SDS011;53672;48.176;16.338;2023-07-13T08:49:01;3.60;;;1.50;;
66761;SDS011;53672;48.176;16.338;2023-07-13T08:54:10;3.85;;;1.50;;
66761;SDS011;53672;48.176;16.338;2023-07-13T08:59:18;3.97;;;1.80;;
66761;SDS011;53672;48.176;16.338;2023-07-13T09:04:21;5.38;;;1.98;;
66761;SDS011;53672;48.176;16.338;2023-07-13T09:09:26;4.57;;;2.40;;
66761;SDS011;53672;48.176;16.338;2023-07-13T09:14:41;5.35;;;2.45;;
66761;SDS011;53672;48.176;16.338;2023-07-13T09:19:45;6.32;;;2.60;;
66761;SDS011;53672;48.176;16.338;2023-07-13T09:24:55;5.40;;;2.60;;
66761;SDS011;53672;48.176;16.338;2023-07-13T09:30:04;5.07;;;2.63;;
66761;SDS011;53672;48.176;16.338;2023-07-13T09:35:31;5.50;;;2.90;;
66761;SDS011;53672;48.176;16.338;2023-07-13T09:40:52;3.90;;;2.50;;
66761;SDS011;53672;48.176;16.338;2023-07-13T09:45:59;5.80;;;3.00;;
66761;SDS011;53672;48.176;16.338;2023-07-13T09:51:02;4.70;;;3.40;;
66761;SDS011;53672;48.176;16.338;2023-07-13T09:56:20;4.95;;;3.10;;
66761;SDS011;53672;48.176;16.338;2023-07-13T10:01:31;4.80;;;2.97;;
66761;SDS011;53672;48.176;16.338;2023-07-13T10:06:33;4.97;;;3.28;;
66761;SDS011;53672;48.176;16.338;2023-07-13T10:11:35;5.37;;;3.43;;
66761;SDS011;53672;48.176;16.338;2023-07-13T10:16:37;5.83;;;3.70;;
66761;SDS011;53672;48.176;16.338;2023-07-13T10:21:39;7.78;;;4.22;;
66761;SDS011;53672;48.176;16.338;2023-07-13T10:26:50;5.60;;;4.47;;
66761;SDS011;53672;48.176;16.338;2023-07-13T10:31:56;6.07;;;4.70;;
66761;SDS011;53672;48.176;16.338;2023-07-13T10:36:56;6.80;;;4.03;;
66761;SDS011;53672;48.176;16.338;2023-07-13T10:41:59;5.03;;;3.47;;
66761;SDS011;53672;48.176;16.338;2023-07-13T10:47:07;7.00;;;4.70;;
66761;SDS011;53672;48.176;16.338;2023-07-13T10:57:43;6.40;;;4.03;;
66761;SDS011;53672;48.176;16.338;2023-07-13T11:02:43;5.43;;;3.80;;
66761;SDS011;53672;48.176;16.338;2023-07-13T11:08:02;5.70;;;4.00;;
66761;SDS011;53672;48.176;16.338;2023-07-13T11:19:08;5.93;;;3.40;;
66761;SDS011;53672;48.176;16.338;2023-07-13T11:24:28;6.55;;;3.53;;
66761;SDS011;53672;48.176;16.338;2023-07-13T11:29:36;4.70;;;3.30;;
66761;SDS011;53672;48.176;16.338;2023-07-13T11:34:38;5.75;;;3.55;;
66761;SDS011;53672;48.176;16.338;2023-07-13T11:39:41;5.75;;;3.20;;
66761;SDS011;53672;48.176;16.338;2023-07-13T11:44:45;5.43;;;3.43;;
66761;SDS011;53672;48.176;16.338;2023-07-13T11:49:48;4.95;;;3.10;;
66761;SDS011;53672;48.176;16.338;2023-07-13T11:54:50;5.30;;;3.50;;
66761;SDS011;53672;48.176;16.338;2023-07-13T11:59:53;5.78;;;3.83;;
66761;SDS011;53672;48.176;16.338;2023-07-13T12:04:55;6.30;;;4.10;;
66761;SDS011;53672;48.176;16.338;2023-07-13T12:09:59;6.17;;;5.00;;
66761;SDS011;53672;48.176;16.338;2023-07-13T12:15:02;6.60;;;5.90;;
66761;SDS011;53672;48.176;16.338;2023-07-13T12:20:12;6.63;;;6.03;;
66761;SDS011;53672;48.176;16.338;2023-07-13T12:25:20;5.63;;;4.82;;
66761;SDS011;53672;48.176;16.338;2023-07-13T12:30:31;5.30;;;4.80;;
66761;SDS011;53672;48.176;16.338;2023-07-13T12:35:38;6.00;;;5.40;;
66761;SDS011;53672;48.176;16.338;2023-07-13T12:40:41;6.53;;;5.28;;
66761;SDS011;53672;48.176;16.338;2023-07-13T12:45:55;5.70;;;3.83;;
66761;SDS011;53672;48.176;16.338;2023-07-13T12:51:00;5.68;;;3.58;;
66761;SDS011;53672;48.176;16.338;2023-07-13T12:56:02;5.00;;;3.27;;
66761;SDS011;53672;48.176;16.338;2023-07-13T13:01:05;5.22;;;3.30;;
66761;SDS011;53672;48.176;16.338;2023-07-13T13:06:07;5.67;;;3.00;;
66761;SDS011;53672;48.176;16.338;2023-07-13T13:11:22;5.43;;;3.20;;
66761;SDS011;53672;48.176;16.338;2023-07-13T13:16:29;6.53;;;4.00;;
66761;SDS011;53672;48.176;16.338;2023-07-13T13:21:31;7.27;;;3.00;;
66761;SDS011;53672;48.176;16.338;2023-07-13T13:26:31;4.80;;;3.10;;
66761;SDS011;53672;48.176;16.338;2023-07-13T13:31:33;6.23;;;3.10;;
66761;SDS011;53672;48.176;16.338;2023-07-13T13:36:33;5.03;;;2.85;;
66761;SDS011;53672;48.176;16.338;2023-07-13T13:41:34;6.17;;;3.00;;
66761;SDS011;53672;48.176;16.338;2023-07-13T13:46:36;4.97;;;2.90;;
66761;SDS011;53672;48.176;16.338;2023-07-13T13:51:37;4.25;;;2.53;;
66761;SDS011;53672;48.176;16.338;2023-07-13T13:56:37;6.17;;;2.70;;
66761;SDS011;53672;48.176;16.338;2023-07-13T14:01:39;4.60;;;2.97;;
66761;SDS011;53672;48.176;16.338;2023-07-13T14:06:42;5.55;;;2.60;;
66761;SDS011;53672;48.176;16.338;2023-07-13T14:11:42;4.80;;;2.63;;
66761;SDS011;53672;48.176;16.338;2023-07-13T14:16:45;4.90;;;2.90;;
66761;SDS011;53672;48.176;16.338;2023-07-13T14:21:46;5.20;;;2.65;;
66761;SDS011;53672;48.176;16.338;2023-07-13T14:26:46;4.63;;;3.10;;
66761;SDS011;53672;48.176;16.338;2023-07-13T14:31:48;5.40;;;3.10;;
66761;SDS011;53672;48.176;16.338;2023-07-13T14:36:49;5.97;;;2.80;;
66761;SDS011;53672;48.176;16.338;2023-07-13T14:41:50;6.53;;;2.80;;
66761;SDS011;53672;48.176;16.338;2023-07-13T14:46:53;5.50;;;3.00;;
66761;SDS011;53672;48.176;16.338;2023-07-13T14:51:55;4.90;;;3.10;;
66761;SDS011;53672;48.176;16.338;2023-07-13T14:56:58;5.90;;;2.90;;
66761;SDS011;53672;48.176;16.338;2023-07-13T15:02:00;6.18;;;2.92;;
66761;SDS011;53672;48.176;16.338;2023-07-13T15:07:01;4.90;;;2.80;;
66761;SDS011;53672;48.176;16.338;2023-07-13T15:12:02;5.28;;;2.90;;
66761;SDS011;53672;48.176;16.338;2023-07-13T15:17:08;6.90;;;3.70;;
66761;SDS011;53672;48.176;16.338;2023-07-13T15:22:23;7.13;;;3.20;;
66761;SDS011;53672;48.176;16.338;2023-07-13T15:27:24;9.17;;;2.80;;
66761;SDS011;53672;48.176;16.338;2023-07-13T15:32:26;5.43;;;2.90;;
66761;SDS011;53672;48.176;16.338;2023-07-13T15:37:26;4.63;;;2.40;;
66761;SDS011;53672;48.176;16.338;2023-07-13T15:42:27;5.97;;;2.90;;
66761;SDS011;53672;48.176;16.338;2023-07-13T15:47:28;6.47;;;3.20;;
66761;SDS011;53672;48.176;16.338;2023-07-13T15:52:29;4.97;;;2.88;;
66761;SDS011;53672;48.176;16.338;2023-07-13T15:57:30;5.88;;;3.10;;
66761;SDS011;53672;48.176;16.338;2023-07-13T16:02:32;5.57;;;3.20;;
66761;SDS011;53672;48.176;16.338;2023-07-13T16:07:33;6.00;;;2.92;;
66761;SDS011;53672;48.176;16.338;2023-07-13T16:12:33;5.87;;;2.80;;
66761;SDS011;53672;48.176;16.338;2023-07-13T16:17:35;5.83;;;3.60;;
66761;SDS011;53672;48.176;16.338;2023-07-13T16:22:35;7.32;;;3.00;;
66761;SDS011;53672;48.176;16.338;2023-07-13T16:27:37;8.70;;;5.57;;
66761;SDS011;53672;48.176;16.338;2023-07-13T16:32:39;6.20;;;2.93;;
66761;SDS011;53672;48.176;16.338;2023-07-13T16:37:39;7.07;;;2.72;;
66761;SDS011;53672;48.176;16.338;2023-07-13T16:42:40;5.47;;;3.43;;
66761;SDS011;53672;48.176;16.338;2023-07-13T16:47:42;7.53;;;2.67;;
66761;SDS011;53672;48.176;16.338;2023-07-13T16:52:42;7.47;;;2.67;;
66761;SDS011;53672;48.176;16.338;2023-07-13T16:57:44;7.22;;;2.53;;
66761;SDS011;53672;48.176;16.338;2023-07-13T17:02:47;6.53;;;2.60;;
66761;SDS011;53672;48.176;16.338;2023-07-13T17:07:48;9.68;;;2.80;;
66761;SDS011;53672;48.176;16.338;2023-07-13T17:12:50;6.73;;;2.50;;
66761;SDS011;53672;48.176;16.338;2023-07-13T17:17:52;6.35;;;2.65;;
66761;SDS011;53672;48.176;16.338;2023-07-13T17:22:53;4.80;;;2.92;;
66761;SDS011;53672;48.176;16.338;2023-07-13T17:27:54;7.17;;;2.53;;
66761;SDS011;53672;48.176;16.338;2023-07-13T17:32:57;6.20;;;3.00;;
66761;SDS011;53672;48.176;16.338;2023-07-13T17:37:58;5.35;;;2.72;;
66761;SDS011;53672;48.176;16.338;2023-07-13T17:43:01;4.90;;;2.40;;
66761;SDS011;53672;48.176;16.338;2023-07-13T17:48:04;5.18;;;2.67;;
66761;SDS011;53672;48.176;16.338;2023-07-13T17:53:08;5.30;;;2.50;;
66761;SDS011;53672;48.176;16.338;2023-07-13T17:58:13;4.87;;;2.50;;
66761;SDS011;53672;48.176;16.338;2023-07-13T18:03:17;6.85;;;2.70;;
66761;SDS011;53672;48.176;16.338;2023-07-13T18:08:22;5.87;;;2.60;;
66761;SDS011;53672;48.176;16.338;2023-07-13T18:13:24;4.50;;;2.40;;
66761;SDS011;53672;48.176;16.338;2023-07-13T18:18:27;5.20;;;2.47;;
66761;SDS011;53672;48.176;16.338;2023-07-13T18:23:31;6.77;;;2.63;;
66761;SDS011;53672;48.176;16.338;2023-07-13T18:28:32;6.38;;;2.80;;
66761;SDS011;53672;48.176;16.338;2023-07-13T18:33:35;6.87;;;2.50;;
66761;SDS011;53672;48.176;16.338;2023-07-13T18:38:36;5.93;;;2.60;;
66761;SDS011;53672;48.176;16.338;2023-07-13T18:43:37;4.60;;;2.25;;
66761;SDS011;53672;48.176;16.338;2023-07-13T18:48:39;4.33;;;2.00;;
66761;SDS011;53672;48.176;16.338;2023-07-13T18:53:40;5.77;;;2.40;;
66761;SDS011;53672;48.176;16.338;2023-07-13T18:58:41;6.05;;;2.38;;
66761;SDS011;53672;48.176;16.338;2023-07-13T19:03:44;6.25;;;3.20;;
66761;SDS011;53672;48.176;16.338;2023-07-13T19:08:44;6.40;;;2.47;;
66761;SDS011;53672;48.176;16.338;2023-07-13T19:13:45;5.63;;;2.33;;
66761;SDS011;53672;48.176;16.338;2023-07-13T19:18:48;7.20;;;2.47;;
66761;SDS011;53672;48.176;16.338;2023-07-13T19:23:49;4.72;;;2.53;;
66761;SDS011;53672;48.176;16.338;2023-07-13T19:28:50;5.07;;;2.57;;
66761;SDS011;53672;48.176;16.338;2023-07-13T19:33:55;4.38;;;2.20;;
66761;SDS011;53672;48.176;16.338;2023-07-13T19:38:56;4.30;;;2.50;;
66761;SDS011;53672;48.176;16.338;2023-07-13T19:43:57;5.78;;;2.63;;
66761;SDS011;53672;48.176;16.338;2023-07-13T19:49:00;5.00;;;2.40;;
66761;SDS011;53672;48.176;16.338;2023-07-13T19:54:05;8.93;;;2.70;;
66761;SDS011;53672;48.176;16.338;2023-07-13T19:59:17;5.40;;;2.50;;
66761;SDS011;53672;48.176;16.338;2023-07-13T20:04:23;7.43;;;2.53;;
66761;SDS011;53672;48.176;16.338;2023-07-13T20:09:25;5.80;;;2.38;;
66761;SDS011;53672;48.176;16.338;2023-07-13T20:14:27;5.07;;;2.40;;
66761;SDS011;53672;48.176;16.338;2023-07-13T20:19:32;5.27;;;2.40;;
66761;SDS011;53672;48.176;16.338;2023-07-13T20:24:34;6.15;;;2.63;;
66761;SDS011;53672;48.176;16.338;2023-07-13T20:29:35;6.47;;;2.60;;
66761;SDS011;53672;48.176;16.338;2023-07-13T20:34:38;5.22;;;2.47;;
66761;SDS011;53672;48.176;16.338;2023-07-13T20:39:39;4.93;;;2.40;;
66761;SDS011;53672;48.176;16.338;2023-07-13T20:44:40;6.47;;;2.43;;
66761;SDS011;53672;48.176;16.338;2023-07-13T20:49:42;4.70;;;2.40;;
66761;SDS011;53672;48.176;16.338;2023-07-13T20:54:43;6.43;;;2.70;;
66761;SDS011;53672;48.176;16.338;2023-07-13T20:59:44;5.60;;;2.43;;
66761;SDS011;53672;48.176;16.338;2023-07-13T21:04:46;6.75;;;2.50;;
66761;SDS011;53672;48.176;16.338;2023-07-13T21:09:47;4.78;;;2.10;;
66761;SDS011;53672;48.176;16.338;2023-07-13T21:14:49;4.65;;;2.50;;
66761;SDS011;53672;48.176;16.338;2023-07-13T21:19:51;4.28;;;2.42;;
66761;SDS011;53672;48.176;16.338;2023-07-13T21:24:52;4.40;;;2.35;;
66761;SDS011;53672;48.176;16.338;2023-07-13T21:29:52;4.73;;;2.50;;
66761;SDS011;53672;48.176;16.338;2023-07-13T21:34:54;4.33;;;2.33;;
66761;SDS011;53672;48.176;16.338;2023-07-13T21:39:55;7.95;;;2.40;;
66761;SDS011;53672;48.176;16.338;2023-07-13T21:44:55;4.60;;;2.20;;
66761;SDS011;53672;48.176;16.338;2023-07-13T21:49:57;6.00;;;2.77;;
66761;SDS011;53672;48.176;16.338;2023-07-13T21:54:58;4.95;;;2.28;;
66761;SDS011;53672;48.176;16.338;2023-07-13T21:59:59;7.55;;;2.58;;
66761;SDS011;53672;48.176;16.338;2023-07-13T22:05:00;4.63;;;2.40;;
66761;SDS011;53672;48.176;16.338;2023-07-13T22:10:03;5.70;;;2.40;;
66761;SDS011;53672;48.176;16.338;2023-07-13T22:15:04;6.13;;;2.15;;
66761;SDS011;53672;48.176;16.338;2023-07-13T22:20:08;5.27;;;2.30;;
66761;SDS011;53672;48.176;16.338;2023-07-13T22:25:17;5.18;;;2.30;;
66761;SDS011;53672;48.176;16.338;2023-07-13T22:30:18;4.93;;;2.40;;
66761;SDS011;53672;48.176;16.338;2023-07-13T22:35:19;6.13;;;2.30;;
66761;SDS011;53672;48.176;16.338;2023-07-13T22:40:20;5.60;;;2.10;;
66761;SDS011;53672;48.176;16.338;2023-07-13T22:45:20;4.73;;;2.20;;
66761;SDS011;53672;48.176;16.338;2023-07-13T22:50:22;6.00;;;2.28;;
66761;SDS011;53672;48.176;16.338;2023-07-13T22:55:23;5.67;;;2.13;;
66761;SDS011;53672;48.176;16.338;2023-07-13T23:00:23;6.57;;;2.20;;
66761;SDS011;53672;48.176;16.338;2023-07-13T23:05:25;5.30;;;2.40;;
66761;SDS011;53672;48.176;16.338;2023-07-13T23:10:25;5.75;;;2.20;;
66761;SDS011;53672;48.176;16.338;2023-07-13T23:15:26;8.50;;;2.50;;
66761;SDS011;53672;48.176;16.338;2023-07-13T23:20:29;4.27;;;1.90;;
66761;SDS011;53672;48.176;16.338;2023-07-13T23:25:31;5.07;;;2.20;;
66761;SDS011;53672;48.176;16.338;2023-07-13T23:30:32;6.30;;;2.20;;
66761;SDS011;53672;48.176;16.338;2023-07-13T23:35:34;5.53;;;2.20;;
66761;SDS011;53672;48.176;16.338;2023-07-13T23:40:34;4.78;;;2.20;;
66761;SDS011;53672;48.176;16.338;2023-07-13T23:45:35;5.28;;;1.90;;
66761;SDS011;53672;48.176;16.338;2023-07-13T23:50:37;4.70;;;2.20;;
66761;SDS011;53672;48.176;16.338;2023-07-13T23:55:40;5.50;;;2.00;;
